sensor_id;sensor_type;location;lat;lon;timestamp;P1;durP1;ratioP1;P2;durP2;ratioP2
65759;SDS011;52496;51.082;5.066;2022-12-10T00:01:52;46.22;;;19.90;;
65759;SDS011;52496;51.082;5.066;2022-12-10T00:04:22;47.40;;;19.80;;
65759;SDS011;52496;51.082;5.066;2022-12-10T00:06:53;51.95;;;20.60;;
65759;SDS011;52496;51.082;5.066;2022-12-10T00:09:23;49.35;;;20.27;;
65759;SDS011;52496;51.082;5.066;2022-12-10T00:11:54;55.72;;;22.95;;
65759;SDS011;52496;51.082;5.066;2022-12-10T00:14:24;47.33;;;20.63;;
65759;SDS011;52496;51.082;5.066;2022-12-10T00:16:55;54.05;;;20.80;;
65759;SDS011;52496;51.082;5.066;2022-12-10T00:19:25;50.60;;;21.20;;
65759;SDS011;52496;51.082;5.066;2022-12-10T00:21:56;51.85;;;20.85;;
65759;SDS011;52496;51.082;5.066;2022-12-10T00:24:26;48.13;;;20.95;;
65759;SDS011;52496;51.082;5.066;2022-12-10T00:26:57;46.13;;;19.23;;
65759;SDS011;52496;51.082;5.066;2022-12-10T00:29:27;52.97;;;20.15;;
65759;SDS011;52496;51.082;5.066;2022-12-10T00:31:58;47.78;;;20.90;;
65759;SDS011;52496;51.082;5.066;2022-12-10T00:34:28;51.47;;;21.70;;
65759;SDS011;52496;51.082;5.066;2022-12-10T00:36:59;58.72;;;24.90;;
65759;SDS011;52496;51.082;5.066;2022-12-10T00:39:29;57.58;;;22.17;;
65759;SDS011;52496;51.082;5.066;2022-12-10T00:41:59;59.45;;;20.90;;
65759;SDS011;52496;51.082;5.066;2022-12-10T00:44:30;55.40;;;20.85;;
65759;SDS011;52496;51.082;5.066;2022-12-10T00:47:00;51.08;;;20.92;;
65759;SDS011;52496;51.082;5.066;2022-12-10T00:49:31;50.75;;;21.25;;
65759;SDS011;52496;51.082;5.066;2022-12-10T00:52:01;46.60;;;18.92;;
65759;SDS011;52496;51.082;5.066;2022-12-10T00:54:32;46.55;;;19.75;;
65759;SDS011;52496;51.082;5.066;2022-12-10T00:57:02;56.30;;;20.73;;
65759;SDS011;52496;51.082;5.066;2022-12-10T00:59:33;51.88;;;20.77;;
65759;SDS011;52496;51.082;5.066;2022-12-10T01:02:03;51.88;;;20.70;;
65759;SDS011;52496;51.082;5.066;2022-12-10T01:04:34;48.33;;;20.42;;
65759;SDS011;52496;51.082;5.066;2022-12-10T01:07:04;47.30;;;19.65;;
65759;SDS011;52496;51.082;5.066;2022-12-10T01:09:35;48.63;;;19.77;;
65759;SDS011;52496;51.082;5.066;2022-12-10T01:12:05;44.10;;;18.50;;
65759;SDS011;52496;51.082;5.066;2022-12-10T01:14:36;50.85;;;20.88;;
65759;SDS011;52496;51.082;5.066;2022-12-10T01:17:06;45.58;;;20.13;;
65759;SDS011;52496;51.082;5.066;2022-12-10T01:19:37;49.25;;;19.80;;
65759;SDS011;52496;51.082;5.066;2022-12-10T01:22:08;49.90;;;20.00;;
65759;SDS011;52496;51.082;5.066;2022-12-10T01:24:38;44.92;;;19.58;;
65759;SDS011;52496;51.082;5.066;2022-12-10T01:27:09;46.88;;;20.48;;
65759;SDS011;52496;51.082;5.066;2022-12-10T01:29:39;51.05;;;20.48;;
65759;SDS011;52496;51.082;5.066;2022-12-10T01:32:10;52.63;;;21.67;;
65759;SDS011;52496;51.082;5.066;2022-12-10T01:34:40;46.30;;;19.10;;
65759;SDS011;52496;51.082;5.066;2022-12-10T01:37:11;51.28;;;19.65;;
65759;SDS011;52496;51.082;5.066;2022-12-10T01:39:41;49.30;;;21.48;;
65759;SDS011;52496;51.082;5.066;2022-12-10T01:42:12;44.60;;;18.00;;
65759;SDS011;52496;51.082;5.066;2022-12-10T01:47:14;46.80;;;17.40;;
65759;SDS011;52496;51.082;5.066;2022-12-10T01:49:44;42.53;;;18.00;;
65759;SDS011;52496;51.082;5.066;2022-12-10T01:52:15;42.15;;;16.20;;
65759;SDS011;52496;51.082;5.066;2022-12-10T01:54:46;39.17;;;18.35;;
65759;SDS011;52496;51.082;5.066;2022-12-10T01:57:18;38.33;;;17.67;;
65759;SDS011;52496;51.082;5.066;2022-12-10T02:00:08;40.95;;;16.92;;
65759;SDS011;52496;51.082;5.066;2022-12-10T02:02:42;42.78;;;19.83;;
65759;SDS011;52496;51.082;5.066;2022-12-10T02:05:26;42.35;;;17.75;;
65759;SDS011;52496;51.082;5.066;2022-12-10T02:13:57;43.33;;;18.00;;
65759;SDS011;52496;51.082;5.066;2022-12-10T02:16:36;49.50;;;18.98;;
65759;SDS011;52496;51.082;5.066;2022-12-10T02:19:15;45.22;;;17.42;;
65759;SDS011;52496;51.082;5.066;2022-12-10T02:21:52;50.25;;;19.48;;
65759;SDS011;52496;51.082;5.066;2022-12-10T02:24:27;49.05;;;20.35;;
65759;SDS011;52496;51.082;5.066;2022-12-10T02:27:12;44.83;;;18.85;;
65759;SDS011;52496;51.082;5.066;2022-12-10T02:29:48;49.35;;;19.20;;
65759;SDS011;52496;51.082;5.066;2022-12-10T02:32:23;45.63;;;18.10;;
65759;SDS011;52496;51.082;5.066;2022-12-10T02:35:01;48.20;;;19.60;;
65759;SDS011;52496;51.082;5.066;2022-12-10T02:37:38;51.47;;;20.08;;
65759;SDS011;52496;51.082;5.066;2022-12-10T02:40:25;45.20;;;19.65;;
65759;SDS011;52496;51.082;5.066;2022-12-10T02:43:00;55.78;;;20.95;;
65759;SDS011;52496;51.082;5.066;2022-12-10T02:45:30;53.05;;;19.45;;
65759;SDS011;52496;51.082;5.066;2022-12-10T02:48:02;46.05;;;19.00;;
65759;SDS011;52496;51.082;5.066;2022-12-10T02:50:34;57.90;;;20.83;;
65759;SDS011;52496;51.082;5.066;2022-12-10T02:53:05;46.83;;;20.05;;
65759;SDS011;52496;51.082;5.066;2022-12-10T02:55:47;51.17;;;19.38;;
65759;SDS011;52496;51.082;5.066;2022-12-10T02:58:57;52.55;;;19.20;;
65759;SDS011;52496;51.082;5.066;2022-12-10T03:04:46;41.20;;;16.52;;
65759;SDS011;52496;51.082;5.066;2022-12-10T03:07:34;46.45;;;18.65;;
65759;SDS011;52496;51.082;5.066;2022-12-10T03:10:22;53.80;;;18.48;;
65759;SDS011;52496;51.082;5.066;2022-12-10T03:13:03;51.28;;;18.05;;
65759;SDS011;52496;51.082;5.066;2022-12-10T03:15:38;48.03;;;18.00;;
65759;SDS011;52496;51.082;5.066;2022-12-10T03:18:11;46.60;;;18.25;;
65759;SDS011;52496;51.082;5.066;2022-12-10T03:20:44;47.30;;;17.63;;
65759;SDS011;52496;51.082;5.066;2022-12-10T03:23:16;57.88;;;19.13;;
65759;SDS011;52496;51.082;5.066;2022-12-10T03:25:49;51.03;;;17.88;;
65759;SDS011;52496;51.082;5.066;2022-12-10T03:28:20;51.60;;;18.80;;
65759;SDS011;52496;51.082;5.066;2022-12-10T03:30:52;53.08;;;18.73;;
65759;SDS011;52496;51.082;5.066;2022-12-10T03:33:25;43.85;;;17.83;;
65759;SDS011;52496;51.082;5.066;2022-12-10T03:35:56;48.67;;;19.05;;
65759;SDS011;52496;51.082;5.066;2022-12-10T03:38:27;55.83;;;18.60;;
65759;SDS011;52496;51.082;5.066;2022-12-10T03:40:58;55.63;;;19.33;;
65759;SDS011;52496;51.082;5.066;2022-12-10T03:43:28;60.10;;;19.95;;
65759;SDS011;52496;51.082;5.066;2022-12-10T03:45:59;50.75;;;19.90;;
65759;SDS011;52496;51.082;5.066;2022-12-10T03:48:29;52.78;;;18.70;;
65759;SDS011;52496;51.082;5.066;2022-12-10T03:51:00;49.22;;;16.02;;
65759;SDS011;52496;51.082;5.066;2022-12-10T03:53:30;49.58;;;19.13;;
65759;SDS011;52496;51.082;5.066;2022-12-10T03:56:01;54.78;;;18.05;;
65759;SDS011;52496;51.082;5.066;2022-12-10T03:58:31;50.95;;;18.05;;
65759;SDS011;52496;51.082;5.066;2022-12-10T04:01:02;53.10;;;18.77;;
65759;SDS011;52496;51.082;5.066;2022-12-10T04:03:34;59.10;;;19.85;;
65759;SDS011;52496;51.082;5.066;2022-12-10T04:06:07;53.88;;;19.85;;
65759;SDS011;52496;51.082;5.066;2022-12-10T04:08:39;54.13;;;18.50;;
65759;SDS011;52496;51.082;5.066;2022-12-10T04:11:10;51.80;;;16.92;;
65759;SDS011;52496;51.082;5.066;2022-12-10T04:13:42;53.03;;;18.00;;
65759;SDS011;52496;51.082;5.066;2022-12-10T04:16:31;59.60;;;21.10;;
65759;SDS011;52496;51.082;5.066;2022-12-10T04:19:05;55.05;;;21.50;;
65759;SDS011;52496;51.082;5.066;2022-12-10T04:21:38;55.22;;;19.90;;
65759;SDS011;52496;51.082;5.066;2022-12-10T04:27:20;55.05;;;19.48;;
65759;SDS011;52496;51.082;5.066;2022-12-10T04:29:56;60.22;;;18.92;;
65759;SDS011;52496;51.082;5.066;2022-12-10T04:32:28;60.42;;;21.15;;
65759;SDS011;52496;51.082;5.066;2022-12-10T04:34:59;48.88;;;19.35;;
65759;SDS011;52496;51.082;5.066;2022-12-10T04:37:29;55.85;;;18.50;;
65759;SDS011;52496;51.082;5.066;2022-12-10T04:40:00;52.10;;;19.10;;
65759;SDS011;52496;51.082;5.066;2022-12-10T04:42:30;58.72;;;20.15;;
65759;SDS011;52496;51.082;5.066;2022-12-10T04:45:01;49.28;;;19.23;;
65759;SDS011;52496;51.082;5.066;2022-12-10T04:47:31;58.00;;;19.33;;
65759;SDS011;52496;51.082;5.066;2022-12-10T04:50:02;62.28;;;21.00;;
65759;SDS011;52496;51.082;5.066;2022-12-10T04:52:33;60.15;;;18.70;;
65759;SDS011;52496;51.082;5.066;2022-12-10T04:55:03;61.25;;;19.05;;
65759;SDS011;52496;51.082;5.066;2022-12-10T04:57:34;51.05;;;18.33;;
65759;SDS011;52496;51.082;5.066;2022-12-10T05:00:05;58.13;;;18.58;;
65759;SDS011;52496;51.082;5.066;2022-12-10T05:02:35;50.13;;;17.77;;
65759;SDS011;52496;51.082;5.066;2022-12-10T05:05:06;50.30;;;18.75;;
65759;SDS011;52496;51.082;5.066;2022-12-10T05:07:37;56.03;;;21.60;;
65759;SDS011;52496;51.082;5.066;2022-12-10T05:10:07;57.33;;;19.83;;
65759;SDS011;52496;51.082;5.066;2022-12-10T05:12:38;51.40;;;18.20;;
65759;SDS011;52496;51.082;5.066;2022-12-10T05:15:09;53.13;;;17.23;;
65759;SDS011;52496;51.082;5.066;2022-12-10T05:17:41;46.22;;;16.10;;
65759;SDS011;52496;51.082;5.066;2022-12-10T05:20:12;51.55;;;18.52;;
65759;SDS011;52496;51.082;5.066;2022-12-10T05:22:42;52.45;;;18.55;;
65759;SDS011;52496;51.082;5.066;2022-12-10T05:25:31;49.63;;;19.50;;
65759;SDS011;52496;51.082;5.066;2022-12-10T05:28:22;49.65;;;18.13;;
65759;SDS011;52496;51.082;5.066;2022-12-10T05:30:52;49.97;;;16.73;;
65759;SDS011;52496;51.082;5.066;2022-12-10T05:33:23;47.17;;;15.80;;
65759;SDS011;52496;51.082;5.066;2022-12-10T05:36:01;49.67;;;18.30;;
65759;SDS011;52496;51.082;5.066;2022-12-10T05:38:33;50.65;;;17.88;;
65759;SDS011;52496;51.082;5.066;2022-12-10T05:41:11;49.55;;;17.45;;
65759;SDS011;52496;51.082;5.066;2022-12-10T05:43:44;51.30;;;18.30;;
65759;SDS011;52496;51.082;5.066;2022-12-10T05:46:20;50.85;;;17.98;;
65759;SDS011;52496;51.082;5.066;2022-12-10T05:48:52;57.15;;;19.63;;
65759;SDS011;52496;51.082;5.066;2022-12-10T05:51:24;50.85;;;17.35;;
65759;SDS011;52496;51.082;5.066;2022-12-10T05:53:57;55.08;;;17.70;;
65759;SDS011;52496;51.082;5.066;2022-12-10T05:56:28;63.17;;;18.58;;
65759;SDS011;52496;51.082;5.066;2022-12-10T05:59:00;53.35;;;18.30;;
65759;SDS011;52496;51.082;5.066;2022-12-10T06:01:33;52.10;;;17.85;;
65759;SDS011;52496;51.082;5.066;2022-12-10T06:04:04;58.42;;;20.83;;
65759;SDS011;52496;51.082;5.066;2022-12-10T06:06:36;54.60;;;18.98;;
65759;SDS011;52496;51.082;5.066;2022-12-10T06:09:09;54.95;;;18.35;;
65759;SDS011;52496;51.082;5.066;2022-12-10T06:11:42;56.55;;;19.67;;
65759;SDS011;52496;51.082;5.066;2022-12-10T06:14:13;58.97;;;19.92;;
65759;SDS011;52496;51.082;5.066;2022-12-10T06:16:43;55.42;;;17.70;;
65759;SDS011;52496;51.082;5.066;2022-12-10T06:19:14;56.42;;;19.83;;
65759;SDS011;52496;51.082;5.066;2022-12-10T06:21:44;60.58;;;18.55;;
65759;SDS011;52496;51.082;5.066;2022-12-10T06:24:14;68.60;;;21.38;;
65759;SDS011;52496;51.082;5.066;2022-12-10T06:26:45;58.17;;;19.80;;
65759;SDS011;52496;51.082;5.066;2022-12-10T06:29:15;58.65;;;19.92;;
65759;SDS011;52496;51.082;5.066;2022-12-10T06:31:46;66.22;;;21.52;;
65759;SDS011;52496;51.082;5.066;2022-12-10T06:34:16;68.95;;;21.20;;
65759;SDS011;52496;51.082;5.066;2022-12-10T06:36:47;60.90;;;20.98;;
65759;SDS011;52496;51.082;5.066;2022-12-10T06:39:18;64.28;;;18.92;;
65759;SDS011;52496;51.082;5.066;2022-12-10T06:41:48;72.10;;;21.30;;
65759;SDS011;52496;51.082;5.066;2022-12-10T06:44:19;60.10;;;19.67;;
65759;SDS011;52496;51.082;5.066;2022-12-10T06:46:49;57.33;;;19.98;;
65759;SDS011;52496;51.082;5.066;2022-12-10T06:49:20;67.03;;;21.25;;
65759;SDS011;52496;51.082;5.066;2022-12-10T06:51:51;69.13;;;21.85;;
65759;SDS011;52496;51.082;5.066;2022-12-10T06:54:22;59.70;;;19.25;;
65759;SDS011;52496;51.082;5.066;2022-12-10T06:56:52;67.70;;;20.30;;
65759;SDS011;52496;51.082;5.066;2022-12-10T06:59:22;49.20;;;17.67;;
65759;SDS011;52496;51.082;5.066;2022-12-10T07:01:53;63.05;;;19.63;;
65759;SDS011;52496;51.082;5.066;2022-12-10T07:04:24;56.03;;;18.90;;
65759;SDS011;52496;51.082;5.066;2022-12-10T07:06:55;60.28;;;19.15;;
65759;SDS011;52496;51.082;5.066;2022-12-10T07:09:25;58.88;;;19.40;;
65759;SDS011;52496;51.082;5.066;2022-12-10T07:11:56;50.65;;;17.88;;
65759;SDS011;52496;51.082;5.066;2022-12-10T07:14:26;58.67;;;19.40;;
65759;SDS011;52496;51.082;5.066;2022-12-10T07:16:57;66.00;;;18.90;;
65759;SDS011;52496;51.082;5.066;2022-12-10T07:19:28;70.30;;;18.50;;
65759;SDS011;52496;51.082;5.066;2022-12-10T07:21:58;45.05;;;17.05;;
65759;SDS011;52496;51.082;5.066;2022-12-10T07:24:28;58.00;;;18.02;;
65759;SDS011;52496;51.082;5.066;2022-12-10T07:26:59;60.72;;;19.23;;
65759;SDS011;52496;51.082;5.066;2022-12-10T07:29:29;60.90;;;19.55;;
65759;SDS011;52496;51.082;5.066;2022-12-10T07:32:00;70.90;;;19.73;;
65759;SDS011;52496;51.082;5.066;2022-12-10T07:34:30;66.45;;;21.00;;
65759;SDS011;52496;51.082;5.066;2022-12-10T07:37:01;68.55;;;19.92;;
65759;SDS011;52496;51.082;5.066;2022-12-10T07:39:32;62.40;;;19.10;;
65759;SDS011;52496;51.082;5.066;2022-12-10T07:42:02;71.68;;;20.75;;
65759;SDS011;52496;51.082;5.066;2022-12-10T07:44:33;77.88;;;22.27;;
65759;SDS011;52496;51.082;5.066;2022-12-10T07:47:03;69.22;;;20.35;;
65759;SDS011;52496;51.082;5.066;2022-12-10T07:49:34;57.15;;;19.17;;
65759;SDS011;52496;51.082;5.066;2022-12-10T07:52:04;66.88;;;19.73;;
65759;SDS011;52496;51.082;5.066;2022-12-10T07:54:35;68.18;;;21.10;;
65759;SDS011;52496;51.082;5.066;2022-12-10T07:57:05;61.53;;;19.48;;
65759;SDS011;52496;51.082;5.066;2022-12-10T07:59:36;73.38;;;20.35;;
65759;SDS011;52496;51.082;5.066;2022-12-10T08:02:07;63.28;;;19.15;;
65759;SDS011;52496;51.082;5.066;2022-12-10T08:04:38;88.90;;;21.00;;
65759;SDS011;52496;51.082;5.066;2022-12-10T08:07:09;55.72;;;16.67;;
65759;SDS011;52496;51.082;5.066;2022-12-10T08:09:39;77.07;;;17.92;;
65759;SDS011;52496;51.082;5.066;2022-12-10T08:12:10;73.15;;;17.67;;
65759;SDS011;52496;51.082;5.066;2022-12-10T08:14:41;90.95;;;20.23;;
65759;SDS011;52496;51.082;5.066;2022-12-10T08:17:11;73.20;;;19.95;;
65759;SDS011;52496;51.082;5.066;2022-12-10T08:19:42;66.40;;;18.42;;
65759;SDS011;52496;51.082;5.066;2022-12-10T08:22:12;86.13;;;20.70;;
65759;SDS011;52496;51.082;5.066;2022-12-10T08:24:42;65.93;;;20.58;;
65759;SDS011;52496;51.082;5.066;2022-12-10T08:27:13;78.70;;;19.98;;
65759;SDS011;52496;51.082;5.066;2022-12-10T08:29:44;64.95;;;19.15;;
65759;SDS011;52496;51.082;5.066;2022-12-10T08:32:15;83.05;;;18.98;;
65759;SDS011;52496;51.082;5.066;2022-12-10T08:34:45;101.18;;;24.38;;
65759;SDS011;52496;51.082;5.066;2022-12-10T08:37:16;60.03;;;19.15;;
65759;SDS011;52496;51.082;5.066;2022-12-10T08:39:47;81.90;;;20.30;;
65759;SDS011;52496;51.082;5.066;2022-12-10T08:42:17;109.78;;;24.20;;
65759;SDS011;52496;51.082;5.066;2022-12-10T08:44:48;79.63;;;19.23;;
65759;SDS011;52496;51.082;5.066;2022-12-10T08:47:18;76.70;;;20.67;;
65759;SDS011;52496;51.082;5.066;2022-12-10T08:49:49;83.57;;;18.98;;
65759;SDS011;52496;51.082;5.066;2022-12-10T08:52:19;191.32;;;26.75;;
65759;SDS011;52496;51.082;5.066;2022-12-10T08:54:49;123.03;;;22.92;;
65759;SDS011;52496;51.082;5.066;2022-12-10T08:57:20;63.40;;;18.90;;
65759;SDS011;52496;51.082;5.066;2022-12-10T08:59:50;108.55;;;22.80;;
65759;SDS011;52496;51.082;5.066;2022-12-10T09:02:21;91.25;;;21.58;;
65759;SDS011;52496;51.082;5.066;2022-12-10T09:04:51;74.95;;;19.02;;
65759;SDS011;52496;51.082;5.066;2022-12-10T09:07:22;91.60;;;19.33;;
65759;SDS011;52496;51.082;5.066;2022-12-10T09:09:53;102.70;;;20.13;;
65759;SDS011;52496;51.082;5.066;2022-12-10T09:12:23;99.05;;;20.63;;
65759;SDS011;52496;51.082;5.066;2022-12-10T09:14:54;80.18;;;19.63;;
65759;SDS011;52496;51.082;5.066;2022-12-10T09:17:26;73.75;;;20.73;;
65759;SDS011;52496;51.082;5.066;2022-12-10T09:19:56;68.65;;;18.17;;
65759;SDS011;52496;51.082;5.066;2022-12-10T09:22:26;87.55;;;21.25;;
65759;SDS011;52496;51.082;5.066;2022-12-10T09:24:58;112.00;;;22.65;;
65759;SDS011;52496;51.082;5.066;2022-12-10T09:27:29;84.97;;;21.02;;
65759;SDS011;52496;51.082;5.066;2022-12-10T09:30:00;82.40;;;19.83;;
65759;SDS011;52496;51.082;5.066;2022-12-10T09:32:30;92.18;;;20.65;;
65759;SDS011;52496;51.082;5.066;2022-12-10T09:35:01;76.45;;;19.40;;
65759;SDS011;52496;51.082;5.066;2022-12-10T09:37:31;70.10;;;20.30;;
65759;SDS011;52496;51.082;5.066;2022-12-10T09:40:02;73.97;;;19.15;;
65759;SDS011;52496;51.082;5.066;2022-12-10T09:42:38;75.85;;;21.30;;
65759;SDS011;52496;51.082;5.066;2022-12-10T09:50:57;75.18;;;20.38;;
65759;SDS011;52496;51.082;5.066;2022-12-10T09:53:42;77.20;;;20.38;;
65759;SDS011;52496;51.082;5.066;2022-12-10T09:56:22;72.55;;;19.17;;
65759;SDS011;52496;51.082;5.066;2022-12-10T09:58:56;68.03;;;18.90;;
65759;SDS011;52496;51.082;5.066;2022-12-10T10:01:29;108.22;;;21.50;;
65759;SDS011;52496;51.082;5.066;2022-12-10T10:04:03;68.22;;;19.23;;
65759;SDS011;52496;51.082;5.066;2022-12-10T10:06:34;68.18;;;19.92;;
65759;SDS011;52496;51.082;5.066;2022-12-10T10:09:05;58.38;;;17.95;;
65759;SDS011;52496;51.082;5.066;2022-12-10T10:11:39;78.15;;;21.02;;
65759;SDS011;52496;51.082;5.066;2022-12-10T10:14:12;69.93;;;20.33;;
65759;SDS011;52496;51.082;5.066;2022-12-10T10:16:48;62.67;;;18.48;;
65759;SDS011;52496;51.082;5.066;2022-12-10T10:19:41;75.25;;;20.35;;
65759;SDS011;52496;51.082;5.066;2022-12-10T10:24:44;67.00;;;20.65;;
65759;SDS011;52496;51.082;5.066;2022-12-10T10:27:17;84.80;;;20.75;;
65759;SDS011;52496;51.082;5.066;2022-12-10T10:29:51;87.30;;;22.77;;
65759;SDS011;52496;51.082;5.066;2022-12-10T10:32:28;88.93;;;22.23;;
65759;SDS011;52496;51.082;5.066;2022-12-10T10:35:22;114.35;;;22.17;;
65759;SDS011;52496;51.082;5.066;2022-12-10T10:38:17;69.50;;;20.13;;
65759;SDS011;52496;51.082;5.066;2022-12-10T10:40:54;79.82;;;20.08;;
65759;SDS011;52496;51.082;5.066;2022-12-10T10:43:33;59.97;;;19.15;;
65759;SDS011;52496;51.082;5.066;2022-12-10T10:48:44;66.13;;;19.27;;
65759;SDS011;52496;51.082;5.066;2022-12-10T10:51:20;63.83;;;18.60;;
65759;SDS011;52496;51.082;5.066;2022-12-10T10:53:53;67.30;;;19.00;;
65759;SDS011;52496;51.082;5.066;2022-12-10T10:56:25;70.57;;;21.35;;
65759;SDS011;52496;51.082;5.066;2022-12-10T11:01:51;53.22;;;17.92;;
65759;SDS011;52496;51.082;5.066;2022-12-10T11:04:31;62.47;;;19.08;;
65759;SDS011;52496;51.082;5.066;2022-12-10T11:07:13;60.30;;;18.85;;
65759;SDS011;52496;51.082;5.066;2022-12-10T11:12:53;54.03;;;20.23;;
65759;SDS011;52496;51.082;5.066;2022-12-10T11:18:27;75.22;;;20.55;;
65759;SDS011;52496;51.082;5.066;2022-12-10T11:23:41;66.32;;;19.27;;
65759;SDS011;52496;51.082;5.066;2022-12-10T11:26:36;71.38;;;20.20;;
65759;SDS011;52496;51.082;5.066;2022-12-10T11:38:10;57.30;;;16.88;;
65759;SDS011;52496;51.082;5.066;2022-12-10T11:41:11;61.38;;;20.02;;
65759;SDS011;52496;51.082;5.066;2022-12-10T11:44:25;51.47;;;17.15;;
65759;SDS011;52496;51.082;5.066;2022-12-10T11:47:00;53.83;;;18.67;;
65759;SDS011;52496;51.082;5.066;2022-12-10T11:49:59;60.58;;;18.10;;
65759;SDS011;52496;51.082;5.066;2022-12-10T11:52:52;66.65;;;20.30;;
65759;SDS011;52496;51.082;5.066;2022-12-10T11:58:44;59.20;;;19.30;;
65759;SDS011;52496;51.082;5.066;2022-12-10T12:01:31;53.67;;;18.38;;
65759;SDS011;52496;51.082;5.066;2022-12-10T12:04:33;55.03;;;17.67;;
65759;SDS011;52496;51.082;5.066;2022-12-10T12:07:33;47.88;;;16.92;;
65759;SDS011;52496;51.082;5.066;2022-12-10T12:13:18;58.35;;;19.00;;
65759;SDS011;52496;51.082;5.066;2022-12-10T12:15:59;52.95;;;16.30;;
65759;SDS011;52496;51.082;5.066;2022-12-10T12:18:47;59.28;;;17.60;;
65759;SDS011;52496;51.082;5.066;2022-12-10T12:21:24;49.85;;;16.67;;
65759;SDS011;52496;51.082;5.066;2022-12-10T12:24:00;51.20;;;16.17;;
65759;SDS011;52496;51.082;5.066;2022-12-10T12:26:38;44.80;;;15.43;;
65759;SDS011;52496;51.082;5.066;2022-12-10T12:29:33;58.85;;;17.42;;
65759;SDS011;52496;51.082;5.066;2022-12-10T12:32:12;46.17;;;15.70;;
65759;SDS011;52496;51.082;5.066;2022-12-10T12:41:03;43.25;;;16.77;;
65759;SDS011;52496;51.082;5.066;2022-12-10T12:46:10;48.53;;;14.80;;
65759;SDS011;52496;51.082;5.066;2022-12-10T12:51:42;57.63;;;17.95;;
65759;SDS011;52496;51.082;5.066;2022-12-10T12:54:21;54.35;;;18.45;;
65759;SDS011;52496;51.082;5.066;2022-12-10T12:56:57;58.50;;;18.83;;
65759;SDS011;52496;51.082;5.066;2022-12-10T13:04:48;62.72;;;18.77;;
65759;SDS011;52496;51.082;5.066;2022-12-10T13:09:52;49.38;;;17.85;;
65759;SDS011;52496;51.082;5.066;2022-12-10T13:12:48;49.72;;;17.55;;
65759;SDS011;52496;51.082;5.066;2022-12-10T13:15:37;58.35;;;19.80;;
65759;SDS011;52496;51.082;5.066;2022-12-10T13:20:50;60.30;;;17.98;;
65759;SDS011;52496;51.082;5.066;2022-12-10T13:23:52;53.88;;;16.67;;
65759;SDS011;52496;51.082;5.066;2022-12-10T13:26:26;56.38;;;19.95;;
65759;SDS011;52496;51.082;5.066;2022-12-10T13:31:41;45.03;;;15.35;;
65759;SDS011;52496;51.082;5.066;2022-12-10T13:34:30;55.53;;;18.00;;
65759;SDS011;52496;51.082;5.066;2022-12-10T13:43:38;56.90;;;16.52;;
65759;SDS011;52496;51.082;5.066;2022-12-10T13:46:50;53.38;;;18.17;;
65759;SDS011;52496;51.082;5.066;2022-12-10T13:49:28;56.53;;;17.90;;
65759;SDS011;52496;51.082;5.066;2022-12-10T13:52:07;48.88;;;18.40;;
65759;SDS011;52496;51.082;5.066;2022-12-10T13:54:58;56.55;;;16.58;;
65759;SDS011;52496;51.082;5.066;2022-12-10T14:00:15;49.55;;;17.23;;
65759;SDS011;52496;51.082;5.066;2022-12-10T14:09:00;44.22;;;15.68;;
65759;SDS011;52496;51.082;5.066;2022-12-10T14:14:46;51.75;;;17.77;;
65759;SDS011;52496;51.082;5.066;2022-12-10T14:17:23;68.15;;;20.17;;
65759;SDS011;52496;51.082;5.066;2022-12-10T14:20:02;56.80;;;18.23;;
65759;SDS011;52496;51.082;5.066;2022-12-10T14:22:35;60.50;;;18.77;;
65759;SDS011;52496;51.082;5.066;2022-12-10T14:25:13;55.17;;;18.48;;
65759;SDS011;52496;51.082;5.066;2022-12-10T14:27:51;55.75;;;18.05;;
65759;SDS011;52496;51.082;5.066;2022-12-10T14:30:23;59.33;;;17.63;;
65759;SDS011;52496;51.082;5.066;2022-12-10T14:32:56;55.58;;;18.33;;
65759;SDS011;52496;51.082;5.066;2022-12-10T14:35:29;53.63;;;17.98;;
65759;SDS011;52496;51.082;5.066;2022-12-10T14:38:00;53.00;;;17.45;;
65759;SDS011;52496;51.082;5.066;2022-12-10T14:40:39;56.95;;;19.15;;
65759;SDS011;52496;51.082;5.066;2022-12-10T14:43:15;54.60;;;17.88;;
65759;SDS011;52496;51.082;5.066;2022-12-10T14:46:12;53.10;;;17.88;;
65759;SDS011;52496;51.082;5.066;2022-12-10T14:48:45;57.15;;;17.38;;
65759;SDS011;52496;51.082;5.066;2022-12-10T14:51:17;53.97;;;18.05;;
65759;SDS011;52496;51.082;5.066;2022-12-10T14:53:51;55.88;;;16.38;;
65759;SDS011;52496;51.082;5.066;2022-12-10T14:56:25;52.13;;;16.80;;
65759;SDS011;52496;51.082;5.066;2022-12-10T14:59:07;53.00;;;18.90;;
65759;SDS011;52496;51.082;5.066;2022-12-10T15:01:53;50.17;;;17.48;;
65759;SDS011;52496;51.082;5.066;2022-12-10T15:04:31;60.38;;;19.23;;
65759;SDS011;52496;51.082;5.066;2022-12-10T15:07:12;57.95;;;19.25;;
65759;SDS011;52496;51.082;5.066;2022-12-10T15:09:54;63.53;;;20.50;;
65759;SDS011;52496;51.082;5.066;2022-12-10T15:12:59;58.53;;;20.13;;
65759;SDS011;52496;51.082;5.066;2022-12-10T15:15:28;65.55;;;18.05;;
65759;SDS011;52496;51.082;5.066;2022-12-10T15:23:23;59.03;;;20.67;;
65759;SDS011;52496;51.082;5.066;2022-12-10T15:26:00;58.83;;;20.60;;
65759;SDS011;52496;51.082;5.066;2022-12-10T15:28:35;58.38;;;20.15;;
65759;SDS011;52496;51.082;5.066;2022-12-10T15:31:11;57.55;;;18.40;;
65759;SDS011;52496;51.082;5.066;2022-12-10T15:33:56;62.70;;;20.10;;
65759;SDS011;52496;51.082;5.066;2022-12-10T15:36:34;50.80;;;18.33;;
65759;SDS011;52496;51.082;5.066;2022-12-10T15:41:45;60.08;;;20.08;;
65759;SDS011;52496;51.082;5.066;2022-12-10T15:47:00;65.45;;;21.67;;
65759;SDS011;52496;51.082;5.066;2022-12-10T15:49:38;65.38;;;20.23;;
65759;SDS011;52496;51.082;5.066;2022-12-10T15:52:19;60.63;;;20.52;;
65759;SDS011;52496;51.082;5.066;2022-12-10T15:54:53;64.20;;;20.65;;
65759;SDS011;52496;51.082;5.066;2022-12-10T15:57:26;69.18;;;21.52;;
65759;SDS011;52496;51.082;5.066;2022-12-10T15:59:59;68.25;;;20.02;;
65759;SDS011;52496;51.082;5.066;2022-12-10T16:02:40;60.30;;;20.85;;
65759;SDS011;52496;51.082;5.066;2022-12-10T16:07:46;64.50;;;21.10;;
65759;SDS011;52496;51.082;5.066;2022-12-10T16:10:19;57.67;;;20.08;;
65759;SDS011;52496;51.082;5.066;2022-12-10T16:15:31;64.80;;;19.88;;
65759;SDS011;52496;51.082;5.066;2022-12-10T16:18:07;54.47;;;17.55;;
65759;SDS011;52496;51.082;5.066;2022-12-10T16:20:39;59.95;;;21.15;;
65759;SDS011;52496;51.082;5.066;2022-12-10T16:23:10;60.53;;;20.27;;
65759;SDS011;52496;51.082;5.066;2022-12-10T16:25:42;60.97;;;19.90;;
65759;SDS011;52496;51.082;5.066;2022-12-10T16:28:17;55.28;;;16.67;;
65759;SDS011;52496;51.082;5.066;2022-12-10T16:30:50;56.75;;;17.77;;
65759;SDS011;52496;51.082;5.066;2022-12-10T16:33:25;64.82;;;21.15;;
65759;SDS011;52496;51.082;5.066;2022-12-10T16:35:57;59.42;;;20.50;;
65759;SDS011;52496;51.082;5.066;2022-12-10T16:38:27;60.97;;;19.75;;
65759;SDS011;52496;51.082;5.066;2022-12-10T16:40:58;52.08;;;19.17;;
65759;SDS011;52496;51.082;5.066;2022-12-10T16:43:30;62.13;;;17.67;;
65759;SDS011;52496;51.082;5.066;2022-12-10T16:46:02;53.92;;;18.88;;
65759;SDS011;52496;51.082;5.066;2022-12-10T16:48:33;54.38;;;18.52;;
65759;SDS011;52496;51.082;5.066;2022-12-10T16:51:06;61.95;;;18.20;;
65759;SDS011;52496;51.082;5.066;2022-12-10T16:56:15;58.85;;;18.42;;
65759;SDS011;52496;51.082;5.066;2022-12-10T16:58:46;51.58;;;17.90;;